VOGO Airport Information

Runway Information
Airport Frequencies
Airport Navaids
Airport Weather Information & NOTAM
ADDS - METARS form results

(1712 UTC 05 February 2023)
Data provider http://aviationweather.gov/metar/data/
 
Forecast for: VOGO (GOA , IN)
Text: TAF VOGO 051400Z 0515/0524 35008KT 6000 NSC
Forecast period: 1500 to 2000 UTC 05 February 2023
Forecast type: FROM: standard forecast or significant change
Winds: from the N (350 degrees) at 9 MPH (8 knots; 4.1 m/s)
Visibility: 4 miles (6 km)
Ceiling: unknown
Clouds: missing
Weather: no significant weather forecast for this period
Text: BECMG 0520/0522 04006KT
Forecast period: 2000 UTC 05 February 2023 to 0000 UTC 06 February 2023
Forecast type: BECOMING: Conditions expected to become as follows by 2200 UTC 05 February 2023
Winds: from the NE (40 degrees) at 7 MPH (6 knots; 3.1 m/s)
Visibility: 4 miles (6 km)
Ceiling: unknown
Clouds: missing
Weather: no significant weather forecast for this period